EIME

Casement Air Base Airport

Baldonnel, Ireland
METAR EIME 190930Z 22014KT 9999 FEW016 SCT050 12/09 Q1024
Observed Flight Rules
Oct-19 @ 09:30 UTC (31 minutes ago) Visual Flight Rules
Wind Visibility Clouds
220° at 14 knots 10,000+ meters
  • Few at 1,600' AGL
  • Scattered at 5,000' AGL
Temperatures Readings
Current 12°C / 54°F
Dewpoint 9°C / 48°F
Humidity 82%
Altimeter 30.24" Hg
Pressure 1024 hPa
Elevation 93
METAR EIME 190930Z 22014KT 9999 FEW016 SCT050 12/09 Q1024
Observed Flight Rules
Oct-19 @ 09:30 UTC
(31 minutes ago)
VFR
Wind Visibility
220° at 14 knots 10,000+ meters
Clouds
  • Few at 1,600' AGL
  • Scattered at 5,000' AGL
Temperature Dewpoint
12°C / 54°F 9°C / 48°F
Humidity Altimeter Pressure
82% 30.24" Hg 1024 hPa